createdAt,value
2023-02-22T00:01:51.005Z,4.50
2023-02-22T00:04:21.269Z,4.40
2023-02-22T00:06:50.800Z,4.13
2023-02-22T00:09:21.353Z,4.30
2023-02-22T00:11:50.334Z,4.87
2023-02-22T00:14:20.268Z,4.07
2023-02-22T00:16:48.184Z,7.47
2023-02-22T00:19:15.804Z,5.00
2023-02-22T00:21:44.814Z,6.73
2023-02-22T00:24:23.115Z,6.90
2023-02-22T00:26:55.520Z,7.10
2023-02-22T00:29:24.331Z,5.83
2023-02-22T00:31:52.221Z,6.23
2023-02-22T00:34:19.994Z,5.70
2023-02-22T00:36:47.816Z,5.67
2023-02-22T00:39:15.518Z,5.00
2023-02-22T00:41:43.337Z,5.93
2023-02-22T00:44:12.330Z,4.80
2023-02-22T00:46:40.465Z,4.50
2023-02-22T00:49:08.237Z,5.53
2023-02-22T00:51:35.919Z,5.63
2023-02-22T00:54:03.717Z,6.07
2023-02-22T00:56:31.535Z,5.90
2023-02-22T00:59:00.854Z,5.20
2023-02-22T01:01:29.991Z,4.87
2023-02-22T01:03:57.600Z,5.13
2023-02-22T01:06:25.308Z,4.80
2023-02-22T01:08:52.995Z,5.03
2023-02-22T01:11:22.326Z,6.07
2023-02-22T01:13:49.910Z,6.07
2023-02-22T01:16:17.588Z,6.53
2023-02-22T01:18:46.696Z,6.93
2023-02-22T01:21:15.062Z,7.97
2023-02-22T01:23:45.411Z,6.47
2023-02-22T01:26:13.444Z,5.77
2023-02-22T01:28:41.042Z,7.50
2023-02-22T01:31:08.745Z,5.37
2023-02-22T01:33:36.347Z,6.03
2023-02-22T01:36:11.390Z,6.90
2023-02-22T01:38:39.555Z,6.63
2023-02-22T01:41:07.401Z,6.30
2023-02-22T01:43:35.489Z,7.00
2023-02-22T01:46:04.491Z,6.87
2023-02-22T01:48:40.986Z,7.00
2023-02-22T01:51:13.588Z,6.17
2023-02-22T01:53:48.134Z,6.17
2023-02-22T01:56:17.043Z,5.90
2023-02-22T01:58:51.756Z,6.60
2023-02-22T02:01:23.049Z,5.80
2023-02-22T02:03:53.024Z,6.33
2023-02-22T02:06:22.191Z,7.83
2023-02-22T02:08:56.387Z,9.10
2023-02-22T02:11:26.490Z,8.37
2023-02-22T02:13:57.579Z,7.93
2023-02-22T02:16:28.144Z,8.93
2023-02-22T02:18:55.867Z,10.27
2023-02-22T02:22:08.486Z,10.33
2023-02-22T02:25:18.232Z,10.10
2023-02-22T02:28:12.316Z,9.87
2023-02-22T02:31:10.052Z,10.17
2023-02-22T02:33:45.378Z,7.70
2023-02-22T02:36:18.937Z,8.20
2023-02-22T02:38:55.952Z,7.40
2023-02-22T02:41:28.166Z,8.37
2023-02-22T02:44:02.919Z,8.07
2023-02-22T02:46:36.622Z,7.23
2023-02-22T02:49:12.211Z,7.23
2023-02-22T02:51:43.074Z,6.63
2023-02-22T02:54:13.062Z,6.53
2023-02-22T02:56:42.841Z,6.33
2023-02-22T02:59:26.133Z,6.10
2023-02-22T03:02:07.789Z,5.70
2023-02-22T03:04:49.886Z,5.67
2023-02-22T03:07:34.440Z,6.13
2023-02-22T03:10:19.595Z,5.40
2023-02-22T03:12:58.425Z,5.43
2023-02-22T03:15:36.383Z,6.37
2023-02-22T03:18:07.678Z,5.57
2023-02-22T03:20:44.049Z,5.80
2023-02-22T03:23:18.295Z,5.13
2023-02-22T03:25:51.018Z,11.27
2023-02-22T03:28:22.526Z,12.93
2023-02-22T03:30:55.434Z,11.67
2023-02-22T03:33:33.698Z,16.90
2023-02-22T03:36:10.519Z,18.43
2023-02-22T03:38:40.823Z,20.37
2023-02-22T03:41:12.985Z,18.60
2023-02-22T03:43:44.574Z,15.70
2023-02-22T03:46:16.379Z,12.30
2023-02-22T03:48:52.916Z,12.77
2023-02-22T03:51:23.105Z,10.67
2023-02-22T03:53:55.579Z,10.63
2023-02-22T03:56:36.392Z,9.63
2023-02-22T03:59:06.355Z,9.27
2023-02-22T04:01:34.351Z,8.43
2023-02-22T04:04:02.245Z,8.47
2023-02-22T04:06:32.077Z,6.33
2023-02-22T04:09:01.311Z,9.20
2023-02-22T04:11:28.998Z,8.73
2023-02-22T04:13:57.197Z,7.07
2023-02-22T04:16:25.070Z,6.93
2023-02-22T04:18:53.123Z,6.83
2023-02-22T04:21:20.898Z,7.13
2023-02-22T04:23:52.094Z,7.70
2023-02-22T04:26:19.811Z,7.87
2023-02-22T04:28:52.674Z,8.07
2023-02-22T04:31:23.922Z,7.63
2023-02-22T04:33:53.413Z,11.03
2023-02-22T04:36:27.054Z,12.60
2023-02-22T04:38:56.094Z,11.23
2023-02-22T04:41:25.488Z,15.60
2023-02-22T04:43:53.522Z,15.07
2023-02-22T04:46:23.525Z,18.80
2023-02-22T04:48:52.961Z,15.83
2023-02-22T04:51:23.264Z,16.30
2023-02-22T04:54:07.794Z,13.70
2023-02-22T04:56:37.488Z,14.60
2023-02-22T04:59:06.550Z,13.10
2023-02-22T05:01:35.595Z,14.50
2023-02-22T05:04:03.997Z,12.53
2023-02-22T05:06:31.893Z,11.77
2023-02-22T05:08:59.552Z,10.67
2023-02-22T05:11:29.041Z,12.37
2023-02-22T05:13:56.758Z,11.97
2023-02-22T05:16:24.783Z,11.27
2023-02-22T05:18:52.374Z,12.43
2023-02-22T05:21:20.002Z,13.83
2023-02-22T05:23:47.670Z,10.03
2023-02-22T05:26:15.302Z,12.87
2023-02-22T05:28:44.236Z,9.93
2023-02-22T05:31:11.925Z,12.53
2023-02-22T05:33:40.260Z,11.43
2023-02-22T05:36:09.001Z,9.90
2023-02-22T05:38:43.162Z,9.50
2023-02-22T05:41:12.544Z,11.63
2023-02-22T05:43:40.959Z,10.83
2023-02-22T05:46:10.163Z,11.03
2023-02-22T05:48:37.896Z,12.70
2023-02-22T05:51:06.184Z,13.73
2023-02-22T05:53:33.975Z,11.33
2023-02-22T05:56:01.588Z,12.03
2023-02-22T05:58:29.242Z,10.10
2023-02-22T06:00:56.834Z,10.40
2023-02-22T06:03:25.788Z,9.77
2023-02-22T06:05:53.391Z,11.53
2023-02-22T06:08:21.058Z,11.27
2023-02-22T06:10:48.666Z,9.73
2023-02-22T06:13:16.275Z,10.67
2023-02-22T06:15:44.016Z,10.83
2023-02-22T06:18:11.714Z,10.57
2023-02-22T06:20:41.401Z,9.83
2023-02-22T06:23:09.160Z,10.00
2023-02-22T06:25:36.758Z,9.13
2023-02-22T06:28:05.213Z,10.83
2023-02-22T06:30:33.037Z,10.00
2023-02-22T06:33:00.796Z,9.90
2023-02-22T06:35:28.555Z,9.63
2023-02-22T06:37:57.693Z,11.17
2023-02-22T06:40:29.407Z,11.80
2023-02-22T06:42:58.367Z,11.53
2023-02-22T06:45:26.165Z,10.60
2023-02-22T06:47:53.989Z,12.53
2023-02-22T06:50:24.339Z,11.00
2023-02-22T06:52:52.437Z,11.37
2023-02-22T06:55:24.132Z,13.70
2023-02-22T06:57:52.296Z,13.20
2023-02-22T07:00:22.123Z,14.87
2023-02-22T07:02:49.849Z,17.87
2023-02-22T07:05:19.445Z,17.87
2023-02-22T07:07:47.743Z,18.17
2023-02-22T07:10:23.137Z,20.10
2023-02-22T07:12:53.313Z,26.57
2023-02-22T07:15:23.580Z,24.73
2023-02-22T07:17:51.437Z,20.23
2023-02-22T07:20:20.725Z,18.47
2023-02-22T07:22:49.083Z,17.40
2023-02-22T07:25:17.199Z,16.73
2023-02-22T07:27:45.062Z,20.00
2023-02-22T07:30:19.856Z,16.33
2023-02-22T07:32:48.047Z,16.73
2023-02-22T07:35:17.476Z,15.10
2023-02-22T07:37:45.687Z,17.60
2023-02-22T07:40:13.622Z,19.60
2023-02-22T07:42:55.675Z,16.37
2023-02-22T07:45:26.195Z,17.40
2023-02-22T07:47:54.438Z,19.93
2023-02-22T07:50:23.577Z,20.37
2023-02-22T07:52:53.046Z,22.47
2023-02-22T07:55:23.103Z,26.07
2023-02-22T07:57:53.596Z,22.17
2023-02-22T08:00:26.110Z,20.87
2023-02-22T08:02:54.286Z,24.83
2023-02-22T08:05:25.443Z,23.60
2023-02-22T08:07:53.237Z,24.83
2023-02-22T08:10:23.397Z,25.00
2023-02-22T08:12:52.188Z,25.93
2023-02-22T08:15:23.654Z,23.07
2023-02-22T08:17:53.624Z,21.70
2023-02-22T08:20:22.261Z,21.13
2023-02-22T08:22:50.310Z,23.20
2023-02-22T08:25:20.389Z,25.00
2023-02-22T08:27:48.782Z,29.23
2023-02-22T08:30:19.579Z,32.27
2023-02-22T08:32:47.725Z,33.43
2023-02-22T08:35:18.263Z,37.43
2023-02-22T08:37:46.292Z,37.27
2023-02-22T08:40:17.202Z,32.37
2023-02-22T08:42:44.984Z,33.57
2023-02-22T08:45:13.425Z,33.13
2023-02-22T08:47:41.465Z,32.13
2023-02-22T08:50:10.357Z,36.87
2023-02-22T08:52:39.485Z,37.57
2023-02-22T08:55:08.050Z,37.60
2023-02-22T08:57:35.786Z,36.47
2023-02-22T09:00:03.936Z,36.23
2023-02-22T09:02:31.736Z,35.00
2023-02-22T09:04:59.510Z,33.60
2023-02-22T09:07:27.579Z,35.90
2023-02-22T09:09:56.691Z,36.50
2023-02-22T09:12:24.469Z,40.33
2023-02-22T09:14:52.265Z,34.40
2023-02-22T09:17:20.115Z,38.00
2023-02-22T09:19:47.889Z,36.07
2023-02-22T09:22:15.585Z,35.87
2023-02-22T09:24:44.105Z,37.97
2023-02-22T09:27:13.183Z,38.00
2023-02-22T09:29:40.908Z,37.10
2023-02-22T09:32:08.838Z,37.47
2023-02-22T09:34:36.604Z,35.80
2023-02-22T09:37:08.721Z,34.20
2023-02-22T09:39:37.777Z,36.07
2023-02-22T09:42:12.355Z,37.73
2023-02-22T09:44:48.179Z,35.63
2023-02-22T09:47:20.307Z,36.30
2023-02-22T09:49:58.080Z,36.97
2023-02-22T09:52:29.615Z,35.27
2023-02-22T09:55:07.895Z,32.33
2023-02-22T09:57:40.593Z,33.43
2023-02-22T10:00:18.719Z,28.57
2023-02-22T10:02:52.124Z,32.00
2023-02-22T10:05:26.231Z,33.70
2023-02-22T10:07:59.314Z,30.73
2023-02-22T10:10:33.570Z,29.00
2023-02-22T10:13:14.071Z,31.80
2023-02-22T10:15:52.253Z,28.40
2023-02-22T10:19:07.983Z,30.80
2023-02-22T10:21:47.512Z,30.87
2023-02-22T10:24:31.685Z,27.57
2023-02-22T10:27:00.693Z,29.77
2023-02-22T10:29:33.686Z,26.80
2023-02-22T10:32:05.469Z,29.97
2023-02-22T10:34:38.939Z,27.60
2023-02-22T10:37:21.191Z,24.93
2023-02-22T10:39:52.908Z,25.87
2023-02-22T10:42:26.675Z,23.33
2023-02-22T10:44:54.475Z,23.40
2023-02-22T10:47:24.967Z,22.50
2023-02-22T10:49:56.581Z,23.93
2023-02-22T10:52:28.132Z,19.20
2023-02-22T10:55:13.815Z,19.47
2023-02-22T10:57:45.364Z,17.67
2023-02-22T11:00:20.620Z,19.27
2023-02-22T11:02:55.016Z,16.53
2023-02-22T11:05:31.749Z,19.03
2023-02-22T11:08:15.940Z,20.27
2023-02-22T11:10:44.539Z,18.70
2023-02-22T11:13:19.950Z,17.13
2023-02-22T11:15:48.053Z,15.83
2023-02-22T11:18:26.402Z,16.40
2023-02-22T11:21:03.124Z,15.83
2023-02-22T11:23:31.189Z,18.87
2023-02-22T11:26:05.951Z,14.37
2023-02-22T11:28:34.511Z,15.10
2023-02-22T11:31:14.574Z,15.77
2023-02-22T11:33:52.508Z,15.43
2023-02-22T11:36:33.385Z,14.23
2023-02-22T11:39:01.155Z,12.43
2023-02-22T11:41:29.966Z,14.37
2023-02-22T11:44:15.050Z,17.93
2023-02-22T11:46:44.756Z,16.50
2023-02-22T11:49:17.337Z,16.70
2023-02-22T11:52:01.094Z,15.30
2023-02-22T11:54:47.134Z,14.90
2023-02-22T11:57:26.405Z,16.90
2023-02-22T12:00:16.719Z,15.87
2023-02-22T12:03:08.395Z,14.33
2023-02-22T12:05:59.608Z,14.93
2023-02-22T12:08:38.003Z,15.93
2023-02-22T12:11:13.404Z,16.67
2023-02-22T12:13:58.783Z,14.80
2023-02-22T12:16:39.046Z,15.33
2023-02-22T12:19:16.271Z,15.00
2023-02-22T12:21:53.872Z,13.17
2023-02-22T12:24:24.968Z,13.20
2023-02-22T12:26:58.751Z,12.60
2023-02-22T12:29:33.207Z,15.40
2023-02-22T12:32:06.095Z,13.63
2023-02-22T12:34:41.242Z,12.93
2023-02-22T12:37:17.436Z,14.07
2023-02-22T12:39:54.119Z,9.73
2023-02-22T12:42:29.292Z,10.67
2023-02-22T12:45:02.015Z,10.47
2023-02-22T12:47:36.991Z,13.07
2023-02-22T12:50:15.841Z,13.90
2023-02-22T12:52:51.079Z,14.83
2023-02-22T12:55:25.013Z,14.17
2023-02-22T12:57:59.683Z,11.73
2023-02-22T13:00:31.844Z,15.97
2023-02-22T13:03:02.591Z,14.33
2023-02-22T13:05:35.480Z,13.77
2023-02-22T13:08:21.892Z,11.87
2023-02-22T13:11:05.081Z,14.20
2023-02-22T13:13:41.591Z,12.33
2023-02-22T13:16:21.836Z,13.20
2023-02-22T13:18:56.924Z,15.77
2023-02-22T13:21:32.150Z,14.00
2023-02-22T13:24:12.518Z,11.57
2023-02-22T13:26:44.650Z,13.00
2023-02-22T13:29:18.104Z,11.20
2023-02-22T13:32:09.787Z,11.40
2023-02-22T13:34:59.397Z,11.60
2023-02-22T13:37:58.512Z,14.03
2023-02-22T13:40:56.252Z,12.80
2023-02-22T13:43:49.224Z,11.77
2023-02-22T13:46:33.767Z,12.70
2023-02-22T13:49:18.469Z,11.40
2023-02-22T13:51:51.957Z,13.63
2023-02-22T13:54:25.229Z,14.47
2023-02-22T13:56:57.249Z,12.57
2023-02-22T13:59:28.712Z,13.80
2023-02-22T14:01:57.160Z,14.70
2023-02-22T14:04:40.966Z,13.77
2023-02-22T14:07:51.156Z,13.40
2023-02-22T14:10:47.737Z,14.93
2023-02-22T14:13:18.200Z,13.43
2023-02-22T14:16:20.117Z,14.63
2023-02-22T14:18:51.096Z,15.53
2023-02-22T14:21:21.220Z,13.60
2023-02-22T14:23:50.101Z,15.33
2023-02-22T14:26:24.279Z,13.90
2023-02-22T14:28:56.987Z,13.27
2023-02-22T14:31:35.965Z,14.37
2023-02-22T14:34:08.378Z,14.97
2023-02-22T14:36:42.693Z,17.47
2023-02-22T14:39:25.385Z,16.93
2023-02-22T14:41:58.353Z,20.93
2023-02-22T14:44:36.925Z,16.83
2023-02-22T14:47:08.382Z,17.07
2023-02-22T14:49:41.882Z,16.03
2023-02-22T14:52:20.700Z,17.13
2023-02-22T14:54:59.343Z,19.10
2023-02-22T14:57:39.052Z,16.70
2023-02-22T15:00:22.570Z,18.80
2023-02-22T15:02:52.565Z,17.83
2023-02-22T15:05:21.160Z,18.77
2023-02-22T15:07:54.286Z,22.23
2023-02-22T15:10:26.575Z,19.60
2023-02-22T15:13:09.073Z,18.37
2023-02-22T15:15:40.761Z,16.57
2023-02-22T15:18:21.969Z,17.00
2023-02-22T15:20:55.979Z,20.57
2023-02-22T15:23:26.326Z,18.80
2023-02-22T15:25:54.601Z,20.30
2023-02-22T15:28:24.546Z,20.10
2023-02-22T15:31:24.763Z,22.03
2023-02-22T15:33:54.756Z,20.70
2023-02-22T15:36:26.563Z,20.03
2023-02-22T15:38:56.767Z,20.00
2023-02-22T15:41:32.784Z,21.97
2023-02-22T15:44:17.727Z,19.47
2023-02-22T15:46:54.364Z,17.97
2023-02-22T15:49:24.388Z,19.90
2023-02-22T15:52:04.828Z,19.20
2023-02-22T15:54:39.931Z,20.47
2023-02-22T15:57:07.640Z,19.73
2023-02-22T15:59:44.803Z,21.77
2023-02-22T16:02:35.659Z,19.57
2023-02-22T16:05:08.120Z,17.57
2023-02-22T16:07:41.971Z,17.63
2023-02-22T16:10:21.528Z,19.97
2023-02-22T16:12:49.450Z,20.03
2023-02-22T16:15:19.627Z,20.07
2023-02-22T16:18:01.493Z,22.90
2023-02-22T16:20:36.188Z,18.93
2023-02-22T16:23:24.575Z,18.87
2023-02-22T16:26:07.763Z,20.47
2023-02-22T16:28:35.992Z,22.20
2023-02-22T16:31:04.859Z,20.30
2023-02-22T16:33:34.514Z,19.63
2023-02-22T16:36:14.733Z,17.80
2023-02-22T16:38:44.479Z,17.83
2023-02-22T16:41:12.207Z,19.87
2023-02-22T16:43:40.231Z,20.13
2023-02-22T16:46:07.933Z,21.17
2023-02-22T16:48:38.486Z,19.97
2023-02-22T16:51:17.851Z,18.47
2023-02-22T16:53:45.996Z,18.53
2023-02-22T16:56:17.316Z,20.97
2023-02-22T16:58:47.707Z,20.47
2023-02-22T17:01:15.357Z,19.33
2023-02-22T17:03:44.672Z,20.77
2023-02-22T17:06:12.836Z,19.80
2023-02-22T17:08:41.689Z,21.73
2023-02-22T17:11:12.112Z,21.47
2023-02-22T17:13:41.429Z,23.40
2023-02-22T17:16:15.393Z,21.77
2023-02-22T17:18:45.991Z,18.87
2023-02-22T17:21:14.134Z,19.13
2023-02-22T17:23:43.880Z,19.83
2023-02-22T17:26:13.648Z,19.77
2023-02-22T17:28:43.630Z,20.17
2023-02-22T17:31:19.617Z,20.30
2023-02-22T17:33:48.798Z,17.47
2023-02-22T17:36:16.684Z,18.80
2023-02-22T17:38:44.568Z,18.20
2023-02-22T17:41:12.202Z,20.07
2023-02-22T17:43:39.934Z,19.90
2023-02-22T17:46:08.927Z,20.63
2023-02-22T17:48:36.689Z,20.43
2023-02-22T17:51:12.115Z,18.87
2023-02-22T17:53:40.183Z,17.83
2023-02-22T17:56:08.448Z,19.93
2023-02-22T17:58:36.379Z,19.30
2023-02-22T18:01:04.784Z,18.30
2023-02-22T18:03:33.042Z,17.77
2023-02-22T18:06:02.157Z,21.00
2023-02-22T18:08:32.204Z,19.73
2023-02-22T18:11:05.168Z,18.10
2023-02-22T18:13:32.817Z,17.73
2023-02-22T18:16:00.695Z,23.30
2023-02-22T18:18:28.417Z,17.20
2023-02-22T18:20:59.691Z,18.63
2023-02-22T18:23:29.025Z,17.40
2023-02-22T18:26:22.680Z,17.23
2023-02-22T18:28:49.117Z,15.23
2023-02-22T18:31:18.442Z,19.27
2023-02-22T18:33:47.621Z,16.00
2023-02-22T18:36:16.274Z,15.53
2023-02-22T18:38:44.787Z,18.27
2023-02-22T18:41:15.672Z,18.83
2023-02-22T18:43:43.538Z,19.47
2023-02-22T18:46:12.899Z,15.27
2023-02-22T18:48:41.301Z,15.27
2023-02-22T18:51:11.294Z,17.20
2023-02-22T18:53:40.852Z,17.73
2023-02-22T18:56:10.481Z,19.37
2023-02-22T18:58:43.248Z,17.40
2023-02-22T19:01:17.361Z,16.10
2023-02-22T19:03:47.131Z,12.43
2023-02-22T19:06:15.791Z,14.83
2023-02-22T19:08:44.901Z,16.47
2023-02-22T19:11:17.825Z,13.93
2023-02-22T19:13:47.867Z,11.73
2023-02-22T19:16:19.742Z,11.83
2023-02-22T19:18:48.674Z,12.67
2023-02-22T19:21:16.678Z,13.70
2023-02-22T19:23:46.320Z,14.17
2023-02-22T19:26:18.571Z,12.83
2023-02-22T19:28:49.155Z,13.50
2023-02-22T19:31:18.823Z,12.83
2023-02-22T19:33:51.422Z,13.20
2023-02-22T19:36:24.057Z,14.07
2023-02-22T19:38:52.892Z,14.73
2023-02-22T19:41:23.452Z,12.37
2023-02-22T19:43:54.621Z,12.10
2023-02-22T19:46:25.307Z,12.67
2023-02-22T19:48:55.380Z,13.57
2023-02-22T19:51:25.997Z,12.80
2023-02-22T19:53:55.433Z,8.97
2023-02-22T19:56:27.457Z,9.50
2023-02-22T19:58:58.909Z,11.73
2023-02-22T20:01:29.842Z,10.03
2023-02-22T20:04:00.036Z,13.57
2023-02-22T20:06:29.806Z,11.33
2023-02-22T20:08:58.275Z,12.90
2023-02-22T20:11:26.257Z,10.83
2023-02-22T20:13:56.459Z,12.03
2023-02-22T20:16:24.780Z,9.73
2023-02-22T20:18:52.669Z,12.17
2023-02-22T20:21:22.927Z,10.10
2023-02-22T20:23:50.817Z,8.00
2023-02-22T20:26:22.451Z,7.00
2023-02-22T20:28:50.726Z,8.73
2023-02-22T20:31:21.002Z,8.03
2023-02-22T20:33:53.601Z,7.63
2023-02-22T20:36:23.113Z,6.27
2023-02-22T20:38:54.757Z,7.40
2023-02-22T20:41:24.917Z,8.50
2023-02-22T20:43:53.552Z,6.27
2023-02-22T20:46:23.610Z,7.73
2023-02-22T20:48:55.180Z,7.90
2023-02-22T20:51:22.990Z,7.40
2023-02-22T20:53:50.658Z,9.30
2023-02-22T20:56:20.862Z,7.23
2023-02-22T20:58:48.521Z,6.87
2023-02-22T21:01:19.470Z,6.90
2023-02-22T21:03:49.717Z,7.17
2023-02-22T21:06:19.521Z,7.47
2023-02-22T21:08:51.403Z,9.33
2023-02-22T21:11:19.906Z,5.77
2023-02-22T21:13:47.953Z,5.87
2023-02-22T21:16:19.021Z,5.13
2023-02-22T21:18:51.115Z,4.93
2023-02-22T21:21:18.965Z,6.30
2023-02-22T21:23:50.649Z,5.30
2023-02-22T21:26:23.544Z,4.63
2023-02-22T21:28:51.827Z,4.13
2023-02-22T21:31:21.598Z,4.80
2023-02-22T21:33:52.101Z,3.43
2023-02-22T21:36:20.314Z,2.90
2023-02-22T21:38:53.279Z,2.90
2023-02-22T21:41:23.698Z,3.07
2023-02-22T21:43:52.676Z,4.23
2023-02-22T21:46:20.786Z,3.83
2023-02-22T21:48:49.288Z,2.50
2023-02-22T21:51:20.668Z,3.23
2023-02-22T21:53:52.094Z,2.83
2023-02-22T21:56:24.285Z,2.17
2023-02-22T21:58:59.040Z,2.33
2023-02-22T22:01:28.490Z,2.40
2023-02-22T22:03:59.645Z,2.40
2023-02-22T22:06:30.412Z,1.90
2023-02-22T22:08:59.875Z,2.37
2023-02-22T22:11:27.747Z,1.83
2023-02-22T22:13:57.480Z,2.53
2023-02-22T22:16:27.261Z,2.53
2023-02-22T22:18:55.802Z,3.50
2023-02-22T22:21:25.073Z,2.13
2023-02-22T22:23:56.190Z,3.73
2023-02-22T22:26:25.476Z,2.00
2023-02-22T22:28:55.843Z,2.47
2023-02-22T22:31:25.898Z,1.87
2023-02-22T22:33:54.113Z,3.67
2023-02-22T22:36:22.638Z,4.57
2023-02-22T22:38:52.646Z,3.73
2023-02-22T22:41:21.916Z,4.07
2023-02-22T22:43:52.398Z,4.93
2023-02-22T22:46:20.073Z,4.40
2023-02-22T22:48:47.909Z,4.67
2023-02-22T22:51:19.759Z,6.30
2023-02-22T22:53:49.458Z,5.63
2023-02-22T22:56:20.227Z,5.00
2023-02-22T22:58:51.042Z,3.43
2023-02-22T23:01:26.706Z,3.37
2023-02-22T23:03:57.829Z,4.50
2023-02-22T23:06:30.829Z,3.70
2023-02-22T23:09:00.860Z,3.23
2023-02-22T23:11:30.214Z,3.17
2023-02-22T23:14:00.219Z,3.33
2023-02-22T23:16:28.745Z,4.30
2023-02-22T23:18:56.345Z,3.63
2023-02-22T23:21:24.507Z,3.43
2023-02-22T23:23:55.446Z,4.33
2023-02-22T23:26:26.518Z,4.40
2023-02-22T23:28:56.954Z,3.70
2023-02-22T23:31:28.611Z,4.10
2023-02-22T23:33:58.650Z,5.03
2023-02-22T23:36:27.472Z,5.80
2023-02-22T23:38:55.900Z,4.67
2023-02-22T23:41:25.198Z,5.90
2023-02-22T23:43:52.928Z,5.47
2023-02-22T23:46:20.570Z,4.93
2023-02-22T23:48:53.203Z,4.70
2023-02-22T23:51:25.381Z,4.03
2023-02-22T23:53:55.752Z,4.07
2023-02-22T23:56:26.491Z,4.20
2023-02-22T23:58:57.374Z,4.27
